• Join FlightAware (Why Join?)
  • Login
  • US Flag 
01:14AM EST


 

Airport Tracker/Info


-or-


 

Live Flight TrackerFlight Track Log ✈ VH-AHH ✈ 04-May-2013 ✈ YSCN / CDU - YSCN / CDU

Flight Track Log - Related Links

Times and Time Zones

All times are in EDT time to prevent confusion due to time zone crossing. See the VH-AHH flight status page for this flight to view local times or setup timezone preferences in your user account.

Time Position Orientation Groundspeed Altitude Reporting Facility
EDT Latitude Longitude Course Direction KTS MPH feet Rate Location/Type
11:56PM -34.0399 150.6655 North 67 77 900  Level Aus ATC (RADAR)
11:57PM -34.0238 150.6667 North 95 109 1,100 480 Climbing Aus ATC (RADAR)
11:57PM -34.0085 150.6698 10° North 94 108 1,500 600 Climbing Aus ATC (RADAR)
11:58PM -33.9852 150.6728 North 92 106 2,000 420 Climbing Aus ATC (RADAR)
11:58PM -33.9744 150.6727 359° North 93 107 2,100 480 Climbing Aus ATC (RADAR)
11:59PM -33.9639 150.6728 360° North 90 104 2,400 540 Climbing Aus ATC (RADAR)
11:59PM -33.9509 150.6747 North 91 105 2,600 600 Climbing Aus ATC (RADAR)
12:00AM -33.9292 150.6748 360° North 106 122 3,200 780 Climbing Aus ATC (RADAR)
12:01AM -33.9133 150.6713 350° North 101 116 3,700 480 Climbing Aus ATC (RADAR)
12:01AM -33.8965 150.6694 355° North 105 121 3,800 240 Climbing Aus ATC (RADAR)
12:02AM -33.8816 150.6691 359° North 106 122 4,000 180 Climbing Aus ATC (RADAR)
12:02AM -33.8629 150.6703 North 115 132 4,000  Level Aus ATC (RADAR)
12:04AM -33.8167 150.6722 North 124 143 4,000  Level Aus ATC (RADAR)
12:04AM -33.8024 150.6721 359° North 123 142 4,000  Level Aus ATC (RADAR)
12:05AM -33.7834 150.6749 North 118 136 4,000  Level Aus ATC (RADAR)
12:05AM -33.7629 150.6880 28° Northeast 124 143 4,000  Level Aus ATC (RADAR)
12:06AM -33.7441 150.7000 28° Northeast 129 148 4,000  Level Aus ATC (RADAR)
12:07AM -33.7255 150.7131 30° Northeast 133 153 4,000 120 Level Aus ATC (RADAR)
12:07AM -33.7066 150.7245 27° Northeast 131 151 4,200  Climbing Aus ATC (RADAR)
12:08AM -33.6894 150.7399 37° Northeast 132 152 4,000 -600 Descending Aus ATC (RADAR)
12:09AM -33.6914 150.7783 94° East 109 125 3,300 -720 Descending Aus ATC (RADAR)
12:09AM -33.6936 150.7934 100° East 107 123 3,000 -420 Descending Aus ATC (RADAR)
12:10AM -33.6974 150.8144 102° East 108 124 2,900 -120 Descending Aus ATC (RADAR)
12:10AM -33.7019 150.8422 101° East 110 127 2,900  Level Aus ATC (RADAR)
12:11AM -33.7060 150.8636 103° East 112 129 2,900  Level Aus ATC (RADAR)
12:12AM -33.7101 150.8857 103° East 112 129 2,900 120 Level Aus ATC (RADAR)
12:12AM -33.7122 150.9063 97° East 106 122 3,100  Climbing Aus ATC (RADAR)
12:13AM -33.7112 150.9294 87° East 117 135 2,900 -480 Descending Aus ATC (RADAR)
12:14AM -33.6907 150.9559 47° Northeast 126 145 2,500 -420 Descending Aus ATC (RADAR)
12:14AM -33.6799 150.9688 45° Northeast 128 147 2,400  Descending Aus ATC (RADAR)
12:15AM -33.6623 150.9710 North 121 139 2,500 -120 Climbing Aus ATC (RADAR)
12:15AM -33.6484 150.9503 309° West 105 121 2,300 -180 Descending Aus ATC (RADAR)
12:16AM -33.6441 150.9326 287° West 92 106 2,300 60 Level Aus ATC (RADAR)
12:17AM -33.6381 150.9089 287° West 99 114 2,400 -240 Climbing Aus ATC (RADAR)
12:17AM -33.6339 150.8980 295° West 103 119 2,100 -900 Descending Aus ATC (RADAR)
12:18AM -33.6283 150.8775 288° West 110 127 1,600 -720 Descending Aus ATC (RADAR)
12:18AM -33.6231 150.8486 282° West 108 124 1,100 -600 Descending Aus ATC (RADAR)
12:19AM -33.6192 150.8345 288° West 105 121 900 -480 Descending Aus ATC (RADAR)
12:19AM -33.6144 150.8214 294° West 104 120 700 -600 Descending Aus ATC (RADAR)
12:20AM -33.6095 150.8023 287° West 104 120 300 180 Descending Aus ATC (RADAR)
12:21AM -33.6161 150.7829 248° West 86 99 1,000 720 Climbing Aus ATC (RADAR)
12:21AM -33.6295 150.7783 196° South 89 102 1,300 600 Climbing Aus ATC (RADAR)
12:22AM -33.6442 150.7807 172° South 91 105 1,700 600 Climbing Aus ATC (RADAR)
12:22AM -33.6578 150.7817 177° South 85 98 2,000 480 Climbing Aus ATC (RADAR)
12:23AM -33.6721 150.7819 179° South 88 101 2,300 540 Climbing Aus ATC (RADAR)
12:24AM -33.6941 150.7829 178° South 79 91 2,900 480 Climbing Aus ATC (RADAR)
12:24AM -33.7042 150.7825 182° South 86 99 3,000 480 Climbing Aus ATC (RADAR)
12:25AM -33.7182 150.7833 177° South 85 98 3,400 660 Climbing Aus ATC (RADAR)
12:26AM -33.7402 150.7828 181° South 88 101 4,000 420 Climbing Aus ATC (RADAR)
12:26AM -33.7532 150.7830 179° South 94 108 4,000 -120 Level Aus ATC (RADAR)
12:27AM -33.7731 150.7727 203° Southwest 99 114 3,900 -120 Descending Aus ATC (RADAR)
12:27AM -33.7830 150.7666 207° Southwest 96 110 3,900 60 Level Aus ATC (RADAR)
12:28AM -33.7990 150.7603 198° South 91 105 4,000 240 Climbing Aus ATC (RADAR)
12:29AM -33.8206 150.7520 198° South 89 102 4,300  Climbing Aus ATC (RADAR)
12:29AM -33.8314 150.7474 199° South 98 113 4,000 -300 Descending Aus ATC (RADAR)
12:30AM -33.8484 150.7401 199° South 111 128 4,000 -120 Level Aus ATC (RADAR)
12:31AM -33.8725 150.7341 192° South 118 136 3,900 -120 Descending Aus ATC (RADAR)
12:31AM -33.8894 150.7336 182° South 105 121 3,900 60 Level Aus ATC (RADAR)
12:32AM -33.9097 150.7325 182° South 98 113 4,000 180 Climbing Aus ATC (RADAR)
12:32AM -33.9183 150.7326 180° South 96 110 4,100 60 Climbing Aus ATC (RADAR)
12:33AM -33.9351 150.7301 187° South 103 119 4,100 -120 Level Aus ATC (RADAR)
12:34AM -33.9734 150.7226 189° South 109 125 3,900 -180 Descending Aus ATC (RADAR)
12:35AM -33.9852 150.7201 190° South 104 120 3,800 180 Descending Aus ATC (RADAR)
12:35AM -34.0001 150.7137 200° South 97 112 4,100 240 Climbing Aus ATC (RADAR)
12:36AM -34.0173 150.7044 204° Southwest 103 119 4,100 -120 Level Aus ATC (RADAR)
12:37AM -34.0333 150.6943 208° Southwest 110 127 4,000 -120 Descending Aus ATC (RADAR)
12:37AM -34.0482 150.6844 209° Southwest 106 122 4,000  Level Aus ATC (RADAR)
12:38AM -34.0605 150.6701 224° Southwest 105 121 4,000 60 Level Aus ATC (RADAR)
12:38AM -34.0729 150.6574 220° Southwest 100 115 4,100 -240 Climbing Aus ATC (RADAR)
12:39AM -34.0886 150.6702 146° Southeast 109 125 3,700 -480 Descending Aus ATC (RADAR)
12:39AM -34.0778 150.6789 34° Northeast 110 127 3,600  Descending Aus ATC (RADAR)
12:40AM -34.0582 150.6883 22° Northeast 115 132 3,700  Climbing Aus ATC (RADAR)
12:41AM -34.0337 150.6960 15° North 124 143 3,600 -120 Descending Aus ATC (RADAR)
12:41AM -34.0145 150.6986 North 118 136 3,600 -120 Level Aus ATC (RADAR)
12:42AM -33.9955 150.7057 17° North 122 140 3,500 -420 Descending Aus ATC (RADAR)
12:43AM -33.9783 150.7070 North 124 143 3,200 -600 Descending Aus ATC (RADAR)
12:43AM -33.9573 150.7083 North 129 148 2,900 -540 Descending Aus ATC (RADAR)
12:44AM -33.9270 150.7052 355° North 135 155 2,500 -240 Descending Aus ATC (RADAR)
12:44AM -33.9224 150.6890 289° West 121 139 2,600 60 Climbing Aus ATC (RADAR)
12:45AM -33.9380 150.6897 178° South 112 129 2,600  Level Aus ATC (RADAR)
12:46AM -33.9565 150.6845 193° South 104 120 2,600  Level Aus ATC (RADAR)
12:46AM -33.9698 150.6734 215° Southwest 99 114 2,600 -180 Level Aus ATC (RADAR)
12:47AM -33.9825 150.6769 167° South 83 96 2,400 -600 Descending Aus ATC (RADAR)
12:47AM -33.9947 150.6741 191° South 88 101 2,000 -660 Descending Aus ATC (RADAR)
12:48AM -34.0092 150.6698 194° South 93 107 1,700 -600 Descending Aus ATC (RADAR)
12:48AM -34.0227 150.6723 171° South 90 104 1,300 -120 Descending Aus ATC (RADAR)
12:49AM -34.0340 150.6859 135° Southeast 66 76 1,600 60 Climbing Aus ATC (RADAR)
12:50AM -34.0294 150.6986 66° East 83 96 1,400 -300 Descending Aus ATC (RADAR)
12:50AM -34.0168 150.7105 38° Northeast 112 129 1,300  Descending Aus ATC (RADAR)
12:51AM -34.0166 150.6834 270° West 108 124 1,400 60 Climbing Aus ATC (RADAR)
12:52AM -34.0200 150.6630 259° West 104 120 1,400 -180 Level Aus ATC (RADAR)
12:52AM -34.0286 150.6535 222° Southwest 87 100 1,200 -300 Descending Aus ATC (RADAR)
12:53AM -34.0377 150.6567 164° South 70 81 1,100 -420 Descending Aus ATC (RADAR)
12:53AM -34.0458 150.6626 149° Southeast 58 67 800 -540 Descending Aus ATC (RADAR)